sensor_id;sensor_type;location;lat;lon;timestamp;temperature;humidity
983;DHT22;480;48.124;11.578;2022-10-31T00:00:30;13.80;99.90
983;DHT22;480;48.124;11.578;2022-10-31T00:02:58;13.80;99.90
983;DHT22;480;48.124;11.578;2022-10-31T00:05:25;13.80;99.90
983;DHT22;480;48.124;11.578;2022-10-31T00:07:52;13.80;99.90
983;DHT22;480;48.124;11.578;2022-10-31T00:10:19;13.70;99.90
983;DHT22;480;48.124;11.578;2022-10-31T00:12:46;13.70;99.90
983;DHT22;480;48.124;11.578;2022-10-31T00:15:13;13.70;99.90
983;DHT22;480;48.124;11.578;2022-10-31T00:17:40;13.70;99.90
983;DHT22;480;48.124;11.578;2022-10-31T00:20:10;13.60;99.90
983;DHT22;480;48.124;11.578;2022-10-31T00:22:37;13.60;99.90
983;DHT22;480;48.124;11.578;2022-10-31T00:25:04;13.40;99.90
983;DHT22;480;48.124;11.578;2022-10-31T00:27:31;13.40;99.90
983;DHT22;480;48.124;11.578;2022-10-31T00:29:58;13.40;99.90
983;DHT22;480;48.124;11.578;2022-10-31T00:32:28;13.50;99.90
983;DHT22;480;48.124;11.578;2022-10-31T00:34:55;13.50;99.90
983;DHT22;480;48.124;11.578;2022-10-31T00:37:23;13.50;99.90
983;DHT22;480;48.124;11.578;2022-10-31T00:39:50;13.50;99.90
983;DHT22;480;48.124;11.578;2022-10-31T00:42:23;13.50;99.90
983;DHT22;480;48.124;11.578;2022-10-31T00:44:50;13.50;99.90
983;DHT22;480;48.124;11.578;2022-10-31T00:47:17;13.40;99.90
983;DHT22;480;48.124;11.578;2022-10-31T00:49:44;13.40;99.90
983;DHT22;480;48.124;11.578;2022-10-31T00:52:11;13.40;99.90
983;DHT22;480;48.124;11.578;2022-10-31T00:54:39;13.40;99.90
983;DHT22;480;48.124;11.578;2022-10-31T00:57:07;13.40;99.90
983;DHT22;480;48.124;11.578;2022-10-31T00:59:33;13.40;99.90
983;DHT22;480;48.124;11.578;2022-10-31T01:02:01;13.20;99.90
983;DHT22;480;48.124;11.578;2022-10-31T01:04:27;12.90;99.90
983;DHT22;480;48.124;11.578;2022-10-31T01:06:54;12.80;99.90
983;DHT22;480;48.124;11.578;2022-10-31T01:09:22;12.80;99.90
983;DHT22;480;48.124;11.578;2022-10-31T01:12:09;12.70;99.90
983;DHT22;480;48.124;11.578;2022-10-31T01:14:36;12.70;99.90
983;DHT22;480;48.124;11.578;2022-10-31T01:17:03;12.60;99.90
983;DHT22;480;48.124;11.578;2022-10-31T01:19:30;12.60;99.90
983;DHT22;480;48.124;11.578;2022-10-31T01:21:57;12.70;99.90
983;DHT22;480;48.124;11.578;2022-10-31T01:24:24;12.70;99.90
983;DHT22;480;48.124;11.578;2022-10-31T01:26:51;12.70;99.90
983;DHT22;480;48.124;11.578;2022-10-31T01:29:19;12.90;99.90
983;DHT22;480;48.124;11.578;2022-10-31T01:31:46;13.00;99.90
983;DHT22;480;48.124;11.578;2022-10-31T01:34:15;13.00;99.90
983;DHT22;480;48.124;11.578;2022-10-31T01:36:44;12.90;99.90
983;DHT22;480;48.124;11.578;2022-10-31T01:39:14;12.90;99.90
983;DHT22;480;48.124;11.578;2022-10-31T01:41:43;12.90;99.90
983;DHT22;480;48.124;11.578;2022-10-31T01:47:38;12.90;99.90
983;DHT22;480;48.124;11.578;2022-10-31T01:50:19;13.00;99.90
983;DHT22;480;48.124;11.578;2022-10-31T01:52:50;13.10;99.90
983;DHT22;480;48.124;11.578;2022-10-31T01:55:22;13.10;99.90
983;DHT22;480;48.124;11.578;2022-10-31T01:57:53;13.10;99.90
983;DHT22;480;48.124;11.578;2022-10-31T02:00:21;13.00;99.90
983;DHT22;480;48.124;11.578;2022-10-31T02:02:50;12.90;99.90
983;DHT22;480;48.124;11.578;2022-10-31T02:05:20;13.00;99.90
983;DHT22;480;48.124;11.578;2022-10-31T02:07:53;13.00;99.90
983;DHT22;480;48.124;11.578;2022-10-31T02:10:22;12.90;99.90
983;DHT22;480;48.124;11.578;2022-10-31T02:12:51;12.90;99.90
983;DHT22;480;48.124;11.578;2022-10-31T02:15:20;13.00;99.90
983;DHT22;480;48.124;11.578;2022-10-31T02:17:47;13.00;99.90
983;DHT22;480;48.124;11.578;2022-10-31T02:20:18;13.00;99.90
983;DHT22;480;48.124;11.578;2022-10-31T02:23:16;13.00;99.90
983;DHT22;480;48.124;11.578;2022-10-31T02:26:08;12.90;99.90
983;DHT22;480;48.124;11.578;2022-10-31T02:29:03;12.90;99.90
983;DHT22;480;48.124;11.578;2022-10-31T02:31:40;12.90;99.90
983;DHT22;480;48.124;11.578;2022-10-31T02:34:17;12.90;99.90
983;DHT22;480;48.124;11.578;2022-10-31T02:36:52;12.80;99.90
983;DHT22;480;48.124;11.578;2022-10-31T02:39:24;12.80;99.90
983;DHT22;480;48.124;11.578;2022-10-31T02:42:01;12.90;99.90
983;DHT22;480;48.124;11.578;2022-10-31T02:44:34;12.90;99.90
983;DHT22;480;48.124;11.578;2022-10-31T02:47:06;12.90;99.90
983;DHT22;480;48.124;11.578;2022-10-31T02:49:40;12.90;99.90
983;DHT22;480;48.124;11.578;2022-10-31T02:52:19;12.90;99.90
983;DHT22;480;48.124;11.578;2022-10-31T02:54:48;12.90;99.90
983;DHT22;480;48.124;11.578;2022-10-31T02:57:17;12.90;99.90
983;DHT22;480;48.124;11.578;2022-10-31T02:59:49;12.80;99.90
983;DHT22;480;48.124;11.578;2022-10-31T03:02:32;12.80;99.90
983;DHT22;480;48.124;11.578;2022-10-31T03:08:06;12.80;99.90
983;DHT22;480;48.124;11.578;2022-10-31T03:10:41;12.70;99.90
983;DHT22;480;48.124;11.578;2022-10-31T03:13:11;12.70;99.90
983;DHT22;480;48.124;11.578;2022-10-31T03:15:44;12.70;99.90
983;DHT22;480;48.124;11.578;2022-10-31T03:18:15;12.70;99.90
983;DHT22;480;48.124;11.578;2022-10-31T03:20:47;12.70;99.90
983;DHT22;480;48.124;11.578;2022-10-31T03:23:19;12.70;99.90
983;DHT22;480;48.124;11.578;2022-10-31T03:25:48;12.70;99.90
983;DHT22;480;48.124;11.578;2022-10-31T03:28:18;12.70;99.90
983;DHT22;480;48.124;11.578;2022-10-31T03:30:51;12.60;99.90
983;DHT22;480;48.124;11.578;2022-10-31T03:33:22;12.60;99.90
983;DHT22;480;48.124;11.578;2022-10-31T03:35:53;12.70;99.90
983;DHT22;480;48.124;11.578;2022-10-31T03:38:22;12.70;99.90
983;DHT22;480;48.124;11.578;2022-10-31T03:40:51;12.70;99.90
983;DHT22;480;48.124;11.578;2022-10-31T03:43:21;12.70;99.90
983;DHT22;480;48.124;11.578;2022-10-31T03:45:51;12.70;99.90
983;DHT22;480;48.124;11.578;2022-10-31T03:48:21;12.70;99.90
983;DHT22;480;48.124;11.578;2022-10-31T03:50:52;12.70;99.90
983;DHT22;480;48.124;11.578;2022-10-31T03:53:25;12.70;99.90
983;DHT22;480;48.124;11.578;2022-10-31T03:55:57;12.70;99.90
983;DHT22;480;48.124;11.578;2022-10-31T03:58:28;12.70;99.90
983;DHT22;480;48.124;11.578;2022-10-31T04:00:57;12.70;99.90
983;DHT22;480;48.124;11.578;2022-10-31T04:03:31;12.60;99.90
983;DHT22;480;48.124;11.578;2022-10-31T04:06:03;12.60;99.90
983;DHT22;480;48.124;11.578;2022-10-31T04:08:33;12.60;99.90
983;DHT22;480;48.124;11.578;2022-10-31T04:11:04;12.50;99.90
983;DHT22;480;48.124;11.578;2022-10-31T04:13:34;12.60;99.90
983;DHT22;480;48.124;11.578;2022-10-31T04:16:04;12.60;99.90
983;DHT22;480;48.124;11.578;2022-10-31T04:18:33;12.50;99.90
983;DHT22;480;48.124;11.578;2022-10-31T04:21:01;12.40;99.90
983;DHT22;480;48.124;11.578;2022-10-31T04:23:29;12.40;99.90
983;DHT22;480;48.124;11.578;2022-10-31T04:25:56;12.30;99.90
983;DHT22;480;48.124;11.578;2022-10-31T04:28:23;12.20;99.90
983;DHT22;480;48.124;11.578;2022-10-31T04:30:50;12.30;99.90
983;DHT22;480;48.124;11.578;2022-10-31T04:33:18;12.30;99.90
983;DHT22;480;48.124;11.578;2022-10-31T04:35:46;12.30;99.90
983;DHT22;480;48.124;11.578;2022-10-31T04:38:13;12.40;99.90
983;DHT22;480;48.124;11.578;2022-10-31T04:40:40;12.40;99.90
983;DHT22;480;48.124;11.578;2022-10-31T04:43:08;12.30;99.90
983;DHT22;480;48.124;11.578;2022-10-31T04:45:35;12.30;99.90
983;DHT22;480;48.124;11.578;2022-10-31T04:48:02;12.30;99.90
983;DHT22;480;48.124;11.578;2022-10-31T04:50:29;12.30;99.90
983;DHT22;480;48.124;11.578;2022-10-31T04:52:57;12.30;99.90
983;DHT22;480;48.124;11.578;2022-10-31T04:55:24;12.40;99.90
983;DHT22;480;48.124;11.578;2022-10-31T04:57:51;12.40;99.90
983;DHT22;480;48.124;11.578;2022-10-31T05:00:20;12.40;99.90
983;DHT22;480;48.124;11.578;2022-10-31T05:02:48;12.40;99.90
983;DHT22;480;48.124;11.578;2022-10-31T05:05:17;12.40;99.90
983;DHT22;480;48.124;11.578;2022-10-31T05:07:47;12.40;99.90
983;DHT22;480;48.124;11.578;2022-10-31T05:10:17;12.40;99.90
983;DHT22;480;48.124;11.578;2022-10-31T05:12:49;12.40;99.90
983;DHT22;480;48.124;11.578;2022-10-31T05:15:17;12.40;99.90
983;DHT22;480;48.124;11.578;2022-10-31T05:17:45;12.30;99.90
983;DHT22;480;48.124;11.578;2022-10-31T05:20:13;12.30;99.90
983;DHT22;480;48.124;11.578;2022-10-31T05:22:42;12.30;99.90
983;DHT22;480;48.124;11.578;2022-10-31T05:25:10;12.30;99.90
983;DHT22;480;48.124;11.578;2022-10-31T05:27:40;12.30;99.90
983;DHT22;480;48.124;11.578;2022-10-31T05:30:08;12.30;99.90
983;DHT22;480;48.124;11.578;2022-10-31T05:32:38;12.20;99.90
983;DHT22;480;48.124;11.578;2022-10-31T05:35:06;12.20;99.90
983;DHT22;480;48.124;11.578;2022-10-31T05:37:34;12.20;99.90
983;DHT22;480;48.124;11.578;2022-10-31T05:40:02;12.20;99.90
983;DHT22;480;48.124;11.578;2022-10-31T05:42:29;12.10;99.90
983;DHT22;480;48.124;11.578;2022-10-31T05:44:58;12.10;99.90
983;DHT22;480;48.124;11.578;2022-10-31T05:47:25;12.20;99.90
983;DHT22;480;48.124;11.578;2022-10-31T05:49:52;12.20;99.90
983;DHT22;480;48.124;11.578;2022-10-31T05:52:19;12.20;99.90
983;DHT22;480;48.124;11.578;2022-10-31T05:54:46;12.20;99.90
983;DHT22;480;48.124;11.578;2022-10-31T05:57:13;12.10;99.90
983;DHT22;480;48.124;11.578;2022-10-31T05:59:40;12.20;99.90
983;DHT22;480;48.124;11.578;2022-10-31T06:02:08;12.20;99.90
983;DHT22;480;48.124;11.578;2022-10-31T06:04:35;12.10;99.90
983;DHT22;480;48.124;11.578;2022-10-31T06:07:02;12.00;99.90
983;DHT22;480;48.124;11.578;2022-10-31T06:09:29;11.80;99.90
983;DHT22;480;48.124;11.578;2022-10-31T06:11:56;11.70;99.90
983;DHT22;480;48.124;11.578;2022-10-31T06:14:23;11.50;99.90
983;DHT22;480;48.124;11.578;2022-10-31T06:16:50;11.30;99.90
983;DHT22;480;48.124;11.578;2022-10-31T06:19:19;11.10;99.90
983;DHT22;480;48.124;11.578;2022-10-31T06:21:46;11.10;99.90
983;DHT22;480;48.124;11.578;2022-10-31T06:24:13;11.40;99.90
983;DHT22;480;48.124;11.578;2022-10-31T06:26:40;11.50;99.90
983;DHT22;480;48.124;11.578;2022-10-31T06:29:07;11.70;99.90
983;DHT22;480;48.124;11.578;2022-10-31T06:31:34;11.70;99.90
983;DHT22;480;48.124;11.578;2022-10-31T06:34:01;11.80;99.90
983;DHT22;480;48.124;11.578;2022-10-31T06:36:30;11.90;99.90
983;DHT22;480;48.124;11.578;2022-10-31T06:38:57;12.00;99.90
983;DHT22;480;48.124;11.578;2022-10-31T06:41:24;12.00;99.90
983;DHT22;480;48.124;11.578;2022-10-31T06:43:51;12.10;99.90
983;DHT22;480;48.124;11.578;2022-10-31T06:46:18;12.20;99.90
983;DHT22;480;48.124;11.578;2022-10-31T06:48:45;12.10;99.90
983;DHT22;480;48.124;11.578;2022-10-31T06:51:12;12.10;99.90
983;DHT22;480;48.124;11.578;2022-10-31T06:53:40;12.20;99.90
983;DHT22;480;48.124;11.578;2022-10-31T06:56:07;12.20;99.90
983;DHT22;480;48.124;11.578;2022-10-31T06:58:34;12.20;99.90
983;DHT22;480;48.124;11.578;2022-10-31T07:01:01;12.20;99.90
983;DHT22;480;48.124;11.578;2022-10-31T07:03:28;12.30;99.90
983;DHT22;480;48.124;11.578;2022-10-31T07:05:55;12.40;99.90
983;DHT22;480;48.124;11.578;2022-10-31T07:08:24;12.50;99.90
983;DHT22;480;48.124;11.578;2022-10-31T07:10:54;12.60;99.90
983;DHT22;480;48.124;11.578;2022-10-31T07:13:22;12.70;99.90
983;DHT22;480;48.124;11.578;2022-10-31T07:15:52;12.80;99.90
983;DHT22;480;48.124;11.578;2022-10-31T07:18:20;12.80;99.90
983;DHT22;480;48.124;11.578;2022-10-31T07:20:48;12.90;99.90
983;DHT22;480;48.124;11.578;2022-10-31T07:23:15;13.00;99.90
983;DHT22;480;48.124;11.578;2022-10-31T07:25:42;13.00;99.90
983;DHT22;480;48.124;11.578;2022-10-31T07:28:10;13.10;99.90
983;DHT22;480;48.124;11.578;2022-10-31T07:30:38;13.20;99.90
983;DHT22;480;48.124;11.578;2022-10-31T07:33:05;13.30;99.90
983;DHT22;480;48.124;11.578;2022-10-31T07:35:32;13.40;99.90
983;DHT22;480;48.124;11.578;2022-10-31T07:38:07;13.40;99.90
983;DHT22;480;48.124;11.578;2022-10-31T07:40:35;13.40;99.90
983;DHT22;480;48.124;11.578;2022-10-31T07:43:02;13.50;99.90
983;DHT22;480;48.124;11.578;2022-10-31T07:45:31;13.60;99.90
983;DHT22;480;48.124;11.578;2022-10-31T07:47:58;13.50;99.90
983;DHT22;480;48.124;11.578;2022-10-31T07:50:27;13.70;99.90
983;DHT22;480;48.124;11.578;2022-10-31T07:53:00;13.80;99.90
983;DHT22;480;48.124;11.578;2022-10-31T07:55:28;13.80;99.90
983;DHT22;480;48.124;11.578;2022-10-31T07:57:57;13.90;99.90
983;DHT22;480;48.124;11.578;2022-10-31T08:00:24;14.00;99.90
983;DHT22;480;48.124;11.578;2022-10-31T08:02:59;14.00;99.90
983;DHT22;480;48.124;11.578;2022-10-31T08:05:30;14.20;99.90
983;DHT22;480;48.124;11.578;2022-10-31T08:07:58;14.20;99.90
983;DHT22;480;48.124;11.578;2022-10-31T08:10:26;14.20;99.90
983;DHT22;480;48.124;11.578;2022-10-31T08:12:58;14.40;99.90
983;DHT22;480;48.124;11.578;2022-10-31T08:15:26;14.50;99.90
983;DHT22;480;48.124;11.578;2022-10-31T08:17:53;14.50;99.90
983;DHT22;480;48.124;11.578;2022-10-31T08:20:22;14.50;99.90
983;DHT22;480;48.124;11.578;2022-10-31T08:22:56;14.40;99.90
983;DHT22;480;48.124;11.578;2022-10-31T08:25:24;14.60;99.90
983;DHT22;480;48.124;11.578;2022-10-31T08:27:52;14.60;99.90
983;DHT22;480;48.124;11.578;2022-10-31T08:30:20;14.60;99.90
983;DHT22;480;48.124;11.578;2022-10-31T08:32:58;14.40;99.90
983;DHT22;480;48.124;11.578;2022-10-31T08:35:27;14.50;99.90
983;DHT22;480;48.124;11.578;2022-10-31T08:37:54;14.70;99.90
983;DHT22;480;48.124;11.578;2022-10-31T08:40:22;14.80;99.90
983;DHT22;480;48.124;11.578;2022-10-31T08:42:56;14.80;99.90
983;DHT22;480;48.124;11.578;2022-10-31T08:45:23;14.90;99.90
983;DHT22;480;48.124;11.578;2022-10-31T08:47:51;15.10;99.90
983;DHT22;480;48.124;11.578;2022-10-31T08:50:18;15.20;99.90
983;DHT22;480;48.124;11.578;2022-10-31T08:52:46;15.30;99.90
983;DHT22;480;48.124;11.578;2022-10-31T08:55:13;15.40;99.90
983;DHT22;480;48.124;11.578;2022-10-31T08:57:40;15.50;99.90
983;DHT22;480;48.124;11.578;2022-10-31T09:00:09;15.60;99.90
983;DHT22;480;48.124;11.578;2022-10-31T09:02:36;15.70;99.90
983;DHT22;480;48.124;11.578;2022-10-31T09:05:04;15.80;99.90
983;DHT22;480;48.124;11.578;2022-10-31T09:07:37;15.70;99.90
983;DHT22;480;48.124;11.578;2022-10-31T09:10:09;16.00;99.90
983;DHT22;480;48.124;11.578;2022-10-31T09:12:36;16.10;99.90
983;DHT22;480;48.124;11.578;2022-10-31T09:15:03;16.30;99.90
983;DHT22;480;48.124;11.578;2022-10-31T09:17:32;16.50;99.90
983;DHT22;480;48.124;11.578;2022-10-31T09:20:06;16.70;99.90
983;DHT22;480;48.124;11.578;2022-10-31T09:23:02;16.80;99.90
983;DHT22;480;48.124;11.578;2022-10-31T09:25:33;16.80;99.90
983;DHT22;480;48.124;11.578;2022-10-31T09:28:01;16.90;99.90
983;DHT22;480;48.124;11.578;2022-10-31T09:30:32;17.00;99.90
983;DHT22;480;48.124;11.578;2022-10-31T09:33:00;17.20;99.90
983;DHT22;480;48.124;11.578;2022-10-31T09:35:28;17.30;99.90
983;DHT22;480;48.124;11.578;2022-10-31T09:37:55;17.40;99.90
983;DHT22;480;48.124;11.578;2022-10-31T09:40:27;17.50;99.90
983;DHT22;480;48.124;11.578;2022-10-31T09:43:05;17.40;99.90
983;DHT22;480;48.124;11.578;2022-10-31T09:45:39;17.40;99.90
983;DHT22;480;48.124;11.578;2022-10-31T09:48:31;17.10;99.90
983;DHT22;480;48.124;11.578;2022-10-31T09:51:06;17.10;99.90
983;DHT22;480;48.124;11.578;2022-10-31T09:53:38;17.20;99.90
983;DHT22;480;48.124;11.578;2022-10-31T09:59:15;17.20;99.90
983;DHT22;480;48.124;11.578;2022-10-31T10:01:49;17.30;99.90
983;DHT22;480;48.124;11.578;2022-10-31T10:04:37;17.30;99.90
983;DHT22;480;48.124;11.578;2022-10-31T10:07:43;17.40;99.90
983;DHT22;480;48.124;11.578;2022-10-31T10:10:17;17.40;99.90
983;DHT22;480;48.124;11.578;2022-10-31T10:12:56;17.50;99.90
983;DHT22;480;48.124;11.578;2022-10-31T10:15:39;17.70;99.90
983;DHT22;480;48.124;11.578;2022-10-31T10:18:20;17.90;99.90
983;DHT22;480;48.124;11.578;2022-10-31T10:20:59;18.00;99.90
983;DHT22;480;48.124;11.578;2022-10-31T10:23:49;18.10;99.90
983;DHT22;480;48.124;11.578;2022-10-31T10:26:20;17.90;99.90
983;DHT22;480;48.124;11.578;2022-10-31T10:28:54;17.90;99.90
983;DHT22;480;48.124;11.578;2022-10-31T10:31:27;18.00;99.90
983;DHT22;480;48.124;11.578;2022-10-31T10:34:01;17.90;99.90
983;DHT22;480;48.124;11.578;2022-10-31T10:36:37;18.10;99.90
983;DHT22;480;48.124;11.578;2022-10-31T10:39:14;18.20;99.90
983;DHT22;480;48.124;11.578;2022-10-31T10:41:45;18.30;99.90
983;DHT22;480;48.124;11.578;2022-10-31T10:44:27;18.50;99.90
983;DHT22;480;48.124;11.578;2022-10-31T10:47:12;18.40;99.90
983;DHT22;480;48.124;11.578;2022-10-31T10:49:56;18.50;99.90
983;DHT22;480;48.124;11.578;2022-10-31T10:52:36;18.60;99.90
983;DHT22;480;48.124;11.578;2022-10-31T10:55:11;18.70;99.90
983;DHT22;480;48.124;11.578;2022-10-31T10:57:52;18.60;99.90
983;DHT22;480;48.124;11.578;2022-10-31T11:00:23;18.50;99.90
983;DHT22;480;48.124;11.578;2022-10-31T11:02:54;18.50;99.90
983;DHT22;480;48.124;11.578;2022-10-31T11:05:28;18.50;99.90
983;DHT22;480;48.124;11.578;2022-10-31T11:07:56;18.60;99.90
983;DHT22;480;48.124;11.578;2022-10-31T11:10:26;18.60;99.90
983;DHT22;480;48.124;11.578;2022-10-31T11:13:20;18.80;99.90
983;DHT22;480;48.124;11.578;2022-10-31T11:15:55;18.50;99.90
983;DHT22;480;48.124;11.578;2022-10-31T11:18:25;18.50;99.90
983;DHT22;480;48.124;11.578;2022-10-31T11:20:57;18.50;99.90
983;DHT22;480;48.124;11.578;2022-10-31T11:23:26;18.50;99.90
983;DHT22;480;48.124;11.578;2022-10-31T11:25:57;18.50;99.90
983;DHT22;480;48.124;11.578;2022-10-31T11:28:26;18.60;99.90
983;DHT22;480;48.124;11.578;2022-10-31T11:30:56;18.60;99.90
983;DHT22;480;48.124;11.578;2022-10-31T11:33:28;18.50;99.90
983;DHT22;480;48.124;11.578;2022-10-31T11:35:57;18.50;99.90
983;DHT22;480;48.124;11.578;2022-10-31T11:38:31;18.70;99.90
983;DHT22;480;48.124;11.578;2022-10-31T11:41:07;18.70;99.90
983;DHT22;480;48.124;11.578;2022-10-31T11:43:38;18.70;99.90
983;DHT22;480;48.124;11.578;2022-10-31T11:46:10;18.90;99.90
983;DHT22;480;48.124;11.578;2022-10-31T11:48:38;18.90;99.90
983;DHT22;480;48.124;11.578;2022-10-31T11:51:05;18.90;99.90
983;DHT22;480;48.124;11.578;2022-10-31T11:53:34;18.90;99.90
983;DHT22;480;48.124;11.578;2022-10-31T11:56:09;19.00;99.90
983;DHT22;480;48.124;11.578;2022-10-31T11:58:37;18.90;99.90
983;DHT22;480;48.124;11.578;2022-10-31T12:01:04;18.90;99.90
983;DHT22;480;48.124;11.578;2022-10-31T12:03:44;18.90;99.90
983;DHT22;480;48.124;11.578;2022-10-31T12:06:22;19.10;99.90
983;DHT22;480;48.124;11.578;2022-10-31T12:08:50;19.00;99.90
983;DHT22;480;48.124;11.578;2022-10-31T12:11:37;18.90;99.90
983;DHT22;480;48.124;11.578;2022-10-31T12:14:22;19.00;99.90
983;DHT22;480;48.124;11.578;2022-10-31T12:16:55;18.80;99.90
983;DHT22;480;48.124;11.578;2022-10-31T12:19:32;18.80;99.90
983;DHT22;480;48.124;11.578;2022-10-31T12:22:11;18.80;99.90
983;DHT22;480;48.124;11.578;2022-10-31T12:24:52;18.80;99.90
983;DHT22;480;48.124;11.578;2022-10-31T12:27:34;18.70;99.90
983;DHT22;480;48.124;11.578;2022-10-31T12:30:12;18.80;99.90
983;DHT22;480;48.124;11.578;2022-10-31T12:32:55;18.80;99.90
983;DHT22;480;48.124;11.578;2022-10-31T12:35:34;18.80;99.90
983;DHT22;480;48.124;11.578;2022-10-31T12:38:23;18.90;99.90
983;DHT22;480;48.124;11.578;2022-10-31T12:41:03;18.80;99.90
983;DHT22;480;48.124;11.578;2022-10-31T12:43:44;18.80;99.90
983;DHT22;480;48.124;11.578;2022-10-31T12:46:19;18.80;99.90
983;DHT22;480;48.124;11.578;2022-10-31T12:52:12;19.00;99.90
983;DHT22;480;48.124;11.578;2022-10-31T12:54:58;19.10;99.90
983;DHT22;480;48.124;11.578;2022-10-31T12:57:31;19.40;99.90
983;DHT22;480;48.124;11.578;2022-10-31T13:00:04;19.40;99.90
983;DHT22;480;48.124;11.578;2022-10-31T13:02:37;19.30;99.90
983;DHT22;480;48.124;11.578;2022-10-31T13:05:14;19.10;99.90
983;DHT22;480;48.124;11.578;2022-10-31T13:07:48;19.10;99.90
983;DHT22;480;48.124;11.578;2022-10-31T13:10:19;19.00;99.90
983;DHT22;480;48.124;11.578;2022-10-31T13:12:51;19.00;99.90
983;DHT22;480;48.124;11.578;2022-10-31T13:15:23;19.00;99.90
983;DHT22;480;48.124;11.578;2022-10-31T13:17:54;19.00;99.90
983;DHT22;480;48.124;11.578;2022-10-31T13:20:26;19.10;99.90
983;DHT22;480;48.124;11.578;2022-10-31T13:23:00;19.10;99.90
983;DHT22;480;48.124;11.578;2022-10-31T13:25:33;19.20;99.90
983;DHT22;480;48.124;11.578;2022-10-31T13:28:09;19.30;99.90
983;DHT22;480;48.124;11.578;2022-10-31T13:30:41;19.30;99.90
983;DHT22;480;48.124;11.578;2022-10-31T13:33:12;19.30;99.90
983;DHT22;480;48.124;11.578;2022-10-31T13:35:45;19.20;99.90
983;DHT22;480;48.124;11.578;2022-10-31T13:38:21;19.20;99.90
983;DHT22;480;48.124;11.578;2022-10-31T13:40:54;19.10;99.90
983;DHT22;480;48.124;11.578;2022-10-31T13:43:29;19.20;99.90
983;DHT22;480;48.124;11.578;2022-10-31T13:46:01;19.30;99.90
983;DHT22;480;48.124;11.578;2022-10-31T13:48:39;19.20;99.90
983;DHT22;480;48.124;11.578;2022-10-31T13:51:10;19.30;99.90
983;DHT22;480;48.124;11.578;2022-10-31T13:53:40;19.20;99.90
983;DHT22;480;48.124;11.578;2022-10-31T13:56:17;19.10;99.90
983;DHT22;480;48.124;11.578;2022-10-31T13:59:01;19.00;99.90
983;DHT22;480;48.124;11.578;2022-10-31T14:01:32;19.10;99.90
983;DHT22;480;48.124;11.578;2022-10-31T14:04:03;19.10;99.90
983;DHT22;480;48.124;11.578;2022-10-31T14:06:36;19.30;99.90
983;DHT22;480;48.124;11.578;2022-10-31T14:09:04;19.50;99.90
983;DHT22;480;48.124;11.578;2022-10-31T14:11:31;19.50;99.90
983;DHT22;480;48.124;11.578;2022-10-31T14:14:00;19.50;99.90
983;DHT22;480;48.124;11.578;2022-10-31T14:16:31;19.30;99.90
983;DHT22;480;48.124;11.578;2022-10-31T14:19:06;19.30;99.90
983;DHT22;480;48.124;11.578;2022-10-31T14:21:38;19.20;99.90
983;DHT22;480;48.124;11.578;2022-10-31T14:24:14;19.30;99.90
983;DHT22;480;48.124;11.578;2022-10-31T14:26:51;19.20;99.90
983;DHT22;480;48.124;11.578;2022-10-31T14:29:24;19.20;99.90
983;DHT22;480;48.124;11.578;2022-10-31T14:31:55;19.20;99.90
983;DHT22;480;48.124;11.578;2022-10-31T14:34:25;19.20;99.90
983;DHT22;480;48.124;11.578;2022-10-31T14:40:02;19.10;99.90
983;DHT22;480;48.124;11.578;2022-10-31T14:42:46;19.00;99.90
983;DHT22;480;48.124;11.578;2022-10-31T14:45:34;19.00;99.90
983;DHT22;480;48.124;11.578;2022-10-31T14:48:18;19.10;99.90
983;DHT22;480;48.124;11.578;2022-10-31T14:50:49;19.20;99.90
983;DHT22;480;48.124;11.578;2022-10-31T14:53:20;19.10;99.90
983;DHT22;480;48.124;11.578;2022-10-31T14:55:49;19.10;99.90
983;DHT22;480;48.124;11.578;2022-10-31T14:58:21;19.10;99.90
983;DHT22;480;48.124;11.578;2022-10-31T15:00:56;19.10;99.90
983;DHT22;480;48.124;11.578;2022-10-31T15:03:29;19.10;99.90
983;DHT22;480;48.124;11.578;2022-10-31T15:06:01;19.20;99.90
983;DHT22;480;48.124;11.578;2022-10-31T15:08:34;19.10;99.90
983;DHT22;480;48.124;11.578;2022-10-31T15:11:10;19.10;99.90
983;DHT22;480;48.124;11.578;2022-10-31T15:13:43;19.20;99.90
983;DHT22;480;48.124;11.578;2022-10-31T15:16:12;19.30;99.90
983;DHT22;480;48.124;11.578;2022-10-31T15:18:47;19.30;99.90
983;DHT22;480;48.124;11.578;2022-10-31T15:21:16;19.40;99.90
983;DHT22;480;48.124;11.578;2022-10-31T15:23:44;19.20;99.90
983;DHT22;480;48.124;11.578;2022-10-31T15:26:17;19.20;99.90
983;DHT22;480;48.124;11.578;2022-10-31T15:28:58;19.30;99.90
983;DHT22;480;48.124;11.578;2022-10-31T15:31:25;19.30;99.90
983;DHT22;480;48.124;11.578;2022-10-31T15:33:55;19.30;99.90
983;DHT22;480;48.124;11.578;2022-10-31T15:36:25;19.10;99.90
983;DHT22;480;48.124;11.578;2022-10-31T15:38:55;18.90;99.90
983;DHT22;480;48.124;11.578;2022-10-31T15:41:31;18.90;99.90
983;DHT22;480;48.124;11.578;2022-10-31T15:44:03;18.90;99.90
983;DHT22;480;48.124;11.578;2022-10-31T15:46:31;18.80;99.90
983;DHT22;480;48.124;11.578;2022-10-31T15:49:01;18.80;99.90
983;DHT22;480;48.124;11.578;2022-10-31T15:51:31;18.70;99.90
983;DHT22;480;48.124;11.578;2022-10-31T15:54:00;18.70;99.90
983;DHT22;480;48.124;11.578;2022-10-31T15:56:29;18.70;99.90
983;DHT22;480;48.124;11.578;2022-10-31T15:58:59;18.80;99.90
983;DHT22;480;48.124;11.578;2022-10-31T16:01:29;18.70;99.90
983;DHT22;480;48.124;11.578;2022-10-31T16:04:04;18.70;99.90
983;DHT22;480;48.124;11.578;2022-10-31T16:06:32;18.70;99.90
983;DHT22;480;48.124;11.578;2022-10-31T16:09:00;18.60;99.90
983;DHT22;480;48.124;11.578;2022-10-31T16:11:33;18.50;99.90
983;DHT22;480;48.124;11.578;2022-10-31T16:14:05;18.50;99.90
983;DHT22;480;48.124;11.578;2022-10-31T16:16:40;18.40;99.90
983;DHT22;480;48.124;11.578;2022-10-31T16:19:16;18.40;99.90
983;DHT22;480;48.124;11.578;2022-10-31T16:21:45;18.30;99.90
983;DHT22;480;48.124;11.578;2022-10-31T16:24:18;18.20;99.90
983;DHT22;480;48.124;11.578;2022-10-31T16:26:51;18.20;99.90
983;DHT22;480;48.124;11.578;2022-10-31T16:29:27;18.20;99.90
983;DHT22;480;48.124;11.578;2022-10-31T16:31:54;18.00;99.90
983;DHT22;480;48.124;11.578;2022-10-31T16:34:23;17.90;99.90
983;DHT22;480;48.124;11.578;2022-10-31T16:36:51;17.80;99.90
983;DHT22;480;48.124;11.578;2022-10-31T16:39:18;17.80;99.90
983;DHT22;480;48.124;11.578;2022-10-31T16:41:47;17.80;99.90
983;DHT22;480;48.124;11.578;2022-10-31T16:44:19;17.70;99.90
983;DHT22;480;48.124;11.578;2022-10-31T16:46:47;17.60;99.90
983;DHT22;480;48.124;11.578;2022-10-31T16:49:14;17.60;99.90
983;DHT22;480;48.124;11.578;2022-10-31T16:51:43;17.60;99.90
983;DHT22;480;48.124;11.578;2022-10-31T16:54:11;17.50;99.90
983;DHT22;480;48.124;11.578;2022-10-31T16:56:38;17.50;99.90
983;DHT22;480;48.124;11.578;2022-10-31T16:59:09;17.50;99.90